Jwaneng, Botswana
Current Conditions -  °F | °C
As of 11:00 PM on Friday 19 Dec 2014 (Local Time) from FBSK Reporting Station
Scattered Clouds Scattered Clouds  
Wind Chill: 72°   Ceiling: Unl
Heat Index: 72°   Visibility: 6mi
Dew Point: 66°   Wind: 1mph
Humidity: 83%   Direction: NA
Pressure: 30"   Gusts: NA
Location:  24.6°S, 24.67°E
Report Text: FBSK 192100Z VRB01KT 9999 FEW030CB SCT070 22/19 Q1016 NOSIG
Loading
Personal Weather Stations






























Interactive Weather Map New forecast layout! Learn more

10-Day Weather Forecast

Advertisements
Track Severe Weather on mobile